Time;durP1;ratioP1;P1;durP2;ratioP2;P2;SDS_P1;SDS_P2;PMS_P1;PMS_P2;Temp;Humidity;BMP_temperature;BMP_pressure;BME280_temperature;BME280_humidity;BME280_pressure;Samples;Min_cycle;Max_cycle;Signal;HPM_P1;HPM_P2
2022/05/12 00:00:36;;;;;;;;;13.50;12.50;;;;;16.25;69.68;100817.47;5055140;28;45470;-70
2022/05/12 00:03:04;;;;;;;;;13.25;12.25;;;;;16.29;70.28;100831.53;5062611;28;45433;-70
2022/05/12 00:05:30;;;;;;;;;13.75;13.75;;;;;16.19;70.51;100811.22;5055427;28;45340;-70
2022/05/12 00:07:55;;;;;;;;;13.25;13.25;;;;;16.35;71.42;100836.88;5055156;28;45976;-69
2022/05/12 00:10:23;;;;;;;;;14.25;12.00;;;;;16.37;71.35;100837.75;5054961;28;45263;-70
2022/05/12 00:12:49;;;;;;;;;14.50;13.25;;;;;16.40;71.24;100840.44;5055231;28;45392;-69
2022/05/12 00:15:22;;;;;;;;;12.75;12.75;;;;;16.42;71.13;100835.19;5053784;28;45621;-70
2022/05/12 00:17:49;;;;;;;;;11.25;11.00;;;;;16.45;71.50;100837.84;5054838;28;46276;-70
2022/05/12 00:20:17;;;;;;;;;12.50;11.75;;;;;16.48;71.79;100840.53;5054866;28;45378;-70
2022/05/12 00:22:43;;;;;;;;;13.00;12.00;;;;;16.28;70.70;100811.31;5052674;28;45479;-70
2022/05/12 00:25:22;;;;;;;;;13.50;13.25;;;;;16.30;71.06;100830.69;5055166;28;45559;-70
2022/05/12 00:27:47;;;;;;;;;14.00;13.25;;;;;16.30;71.30;100834.19;5053039;28;46197;-70
2022/05/12 00:30:14;;;;;;;;;12.00;11.50;;;;;16.21;71.81;100820.03;5054535;28;45497;-70
2022/05/12 00:32:45;;;;;;;;;13.25;13.00;;;;;16.22;71.91;100824.44;5054817;28;45358;-70
2022/05/12 00:35:12;;;;;;;;;12.33;11.33;;;;;16.22;71.61;100819.16;5055094;28;45476;-70
2022/05/12 00:37:38;;;;;;;;;15.00;14.00;;;;;16.17;71.75;100821.72;5054527;28;45562;-70
2022/05/12 00:40:05;;;;;;;;;16.67;13.67;;;;;16.12;71.99;100814.66;5054599;28;45566;-69
2022/05/12 00:42:30;;;;;;;;;12.00;12.00;;;;;16.15;72.78;100810.28;5054951;28;45515;-70
2022/05/12 00:44:56;;;;;;;;;14.00;13.25;;;;;16.20;72.96;100808.59;5055976;28;45459;-70
2022/05/12 00:47:22;;;;;;;;;15.75;14.50;;;;;16.22;72.83;100808.63;5057310;28;46234;-70
2022/05/12 00:49:51;;;;;;;;;14.25;12.00;;;;;16.23;73.49;100808.63;5057814;28;45402;-70
2022/05/12 00:52:23;;;;;;;;;13.00;11.50;;;;;16.19;73.39;100790.13;5056766;28;45604;-70
2022/05/12 00:54:56;;;;;;;;;13.25;11.25;;;;;16.33;73.53;100800.81;5058353;28;45468;-70
2022/05/12 00:57:28;;;;;;;;;10.00;9.33;;;;;16.25;72.74;100791.09;5055326;28;46156;-70
2022/05/12 00:59:54;;;;;;;;;12.25;11.00;;;;;16.33;73.27;100809.59;5058162;28;45475;-70
2022/05/12 01:02:20;;;;;;;;;12.50;11.75;;;;;16.34;72.91;100795.56;5056770;28;45390;-70
2022/05/12 01:04:47;;;;;;;;;12.00;12.00;;;;;16.31;72.60;100787.63;5058051;28;45409;-70
2022/05/12 01:07:14;;;;;;;;;11.33;11.00;;;;;15.68;71.07;100669.22;5057826;28;46148;-70
2022/05/12 01:09:40;;;;;;;;;13.00;12.50;;;;;16.29;72.25;100787.63;5057727;28;45413;-70
2022/05/12 01:12:07;;;;;;;;;17.00;12.00;;;;;16.15;71.81;100768.13;5057854;28;45323;-70
2022/05/12 01:14:33;;;;;;;;;12.75;12.00;;;;;16.25;71.83;100783.19;5057911;28;45473;-70
2022/05/12 01:17:01;;;;;;;;;14.00;12.75;;;;;16.26;72.14;100786.69;5056101;28;47640;-70
2022/05/12 01:19:34;;;;;;;;;13.00;13.00;;;;;16.25;71.66;100772.66;5065245;28;45579;-70
2022/05/12 01:22:00;;;;;;;;;13.00;13.00;;;;;16.09;71.73;100758.41;5057702;28;45435;-70
2022/05/12 01:24:33;;;;;;;;;12.00;11.75;;;;;16.17;71.36;100771.66;5058140;28;45462;-70
2022/05/12 01:27:18;;;;;;;;;14.25;14.00;;;;;16.16;72.32;100775.16;5057260;28;46090;-70
2022/05/12 01:29:47;;;;;;;;;13.75;13.00;;;;;16.15;71.29;100768.13;5054967;28;45483;-70
2022/05/12 01:32:13;;;;;;;;;13.25;13.25;;;;;15.99;72.06;100739.84;5057603;28;45586;-71
2022/05/12 01:34:38;;;;;;;;;17.25;15.00;;;;;16.14;72.19;100753.19;5057636;28;45512;-70
2022/05/12 01:37:04;;;;;;;;;16.00;13.50;;;;;16.11;71.96;100755.78;5055899;28;46820;-70
2022/05/12 01:39:30;;;;;;;;;13.25;12.50;;;;;16.01;72.70;100736.34;5057429;28;45452;-70
2022/05/12 01:41:56;;;;;;;;;15.00;11.75;;;;;16.09;72.05;100747.88;5057800;28;45298;-70
2022/05/12 01:44:21;;;;;;;;;15.25;14.50;;;;;16.08;72.55;100742.59;5057500;28;45306;-70
2022/05/12 01:46:48;;;;;;;;;15.25;14.00;;;;;16.05;72.04;100742.53;5055859;28;45449;-70
2022/05/12 01:49:14;;;;;;;;;16.00;12.50;;;;;16.03;72.08;100750.41;5058425;28;45357;-70
2022/05/12 01:51:39;;;;;;;;;11.25;10.25;;;;;15.89;71.65;100731.81;5058665;28;45634;-70
2022/05/12 01:54:05;;;;;;;;;11.00;11.00;;;;;15.92;71.37;100736.25;5059182;28;45483;-70
2022/05/12 01:56:31;;;;;;;;;10.00;10.00;;;;;16.03;71.92;100739.00;5058724;28;45375;-70
2022/05/12 01:58:56;;;;;;;;;12.33;12.33;;;;;16.07;72.52;100749.59;5059187;28;45316;-70
2022/05/12 02:01:22;;;;;;;;;10.00;10.00;;;;;16.10;72.12;100748.75;5059074;28;45646;-70
2022/05/12 02:03:47;;;;;;;;;11.50;10.00;;;;;16.10;72.37;100741.72;5059038;28;45593;-70
2022/05/12 02:06:14;;;;;;;;;10.25;10.00;;;;;16.13;71.90;100737.34;5058180;28;45464;-70
2022/05/12 02:08:39;;;;;;;;;9.67;9.00;;;;;16.15;72.46;100738.25;5057215;28;45460;-70
2022/05/12 02:11:05;;;;;;;;;13.25;12.00;;;;;16.13;72.73;100722.41;5074083;28;45519;-70
2022/05/12 02:13:31;;;;;;;;;12.25;11.00;;;;;16.17;72.26;100728.59;5058911;28;45149;-70
2022/05/12 02:15:58;;;;;;;;;11.67;11.67;;;;;16.13;73.32;100711.88;5058855;28;45275;-70
2022/05/12 02:18:24;;;;;;;;;11.00;10.67;;;;;16.13;72.51;100709.25;5074145;28;45428;-70
2022/05/12 02:20:50;;;;;;;;;11.00;10.33;;;;;16.10;72.31;100703.94;5058539;28;45345;-71
2022/05/12 02:23:16;;;;;;;;;10.67;10.00;;;;;15.94;73.31;100688.88;5058699;28;45457;-70
2022/05/12 02:25:42;;;;;;;;;11.33;10.67;;;;;16.10;73.73;100715.38;5058261;28;46103;-70
2022/05/12 02:28:08;;;;;;;;;10.67;10.67;;;;;16.13;73.31;100716.25;5058295;28;45351;-70
2022/05/12 02:30:34;;;;;;;;;13.75;12.75;;;;;16.16;73.80;100721.59;5058135;28;45330;-70
2022/05/12 02:33:00;;;;;;;;;16.50;14.50;;;;;16.12;73.46;100714.53;5059026;28;45330;-70
2022/05/12 02:35:26;;;;;;;;;15.00;12.50;;;;;16.03;73.72;100705.63;5058300;28;46112;-70
2022/05/12 02:37:52;;;;;;;;;13.25;13.25;;;;;16.13;73.62;100718.91;5057990;28;45234;-70
2022/05/12 02:40:20;;;;;;;;;14.75;14.00;;;;;16.15;73.58;100719.81;5058296;28;45380;-70
2022/05/12 02:42:46;;;;;;;;;13.75;13.50;;;;;16.07;73.72;100707.41;5058440;28;45478;-70
2022/05/12 02:45:12;;;;;;;;;13.75;13.50;;;;;16.17;74.07;100728.59;5057978;28;45984;-70
2022/05/12 02:47:38;;;;;;;;;14.75;13.00;;;;;16.18;73.39;100727.75;5058228;28;45409;-70
2022/05/12 02:50:05;;;;;;;;;12.50;12.00;;;;;16.14;73.96;100728.59;5057999;28;45343;-71
2022/05/12 02:52:31;;;;;;;;;9.33;9.00;;;;;16.11;73.41;100726.78;5058730;28;45263;-70
2022/05/12 02:54:56;;;;;;;;;11.67;11.33;;;;;16.04;74.05;100712.69;5058061;28;45981;-70
2022/05/12 02:57:22;;;;;;;;;8.33;8.33;;;;;15.95;72.25;100707.28;5056768;28;45529;-70
2022/05/12 02:59:48;;;;;;;;;10.00;10.00;;;;;15.94;73.23;100717.84;5058234;28;45342;-70
2022/05/12 03:02:13;;;;;;;;;11.00;10.67;;;;;16.00;73.44;100734.59;5058234;28;45495;-70
2022/05/12 03:04:39;;;;;;;;;9.00;8.00;;;;;16.00;72.99;100737.22;5057670;28;45504;-70
2022/05/12 03:07:05;;;;;;;;;11.00;10.00;;;;;16.01;72.77;100738.97;5057186;28;45460;-70
2022/05/12 03:09:30;;;;;;;;;9.67;8.67;;;;;16.01;72.75;100741.63;5057730;28;45344;-70
2022/05/12 03:11:56;;;;;;;;;10.67;10.00;;;;;16.01;72.60;100740.75;5057977;28;45250;-70
2022/05/12 03:14:22;;;;;;;;;11.00;10.00;;;;;15.87;73.34;100724.78;5057516;28;46099;-70
2022/05/12 03:16:47;;;;;;;;;9.67;8.00;;;;;15.92;72.94;100731.00;5057535;28;45861;-70
2022/05/12 03:19:14;;;;;;;;;11.33;10.67;;;;;16.00;72.85;100731.97;5057722;28;45247;-70
2022/05/12 03:21:40;;;;;;;;;8.67;8.67;;;;;15.85;71.75;100713.34;5058024;28;45211;-70
2022/05/12 03:24:05;;;;;;;;;8.33;8.00;;;;;15.93;72.49;100734.50;5057468;28;45938;-70
2022/05/12 03:26:31;;;;;;;;;9.33;9.33;;;;;15.94;72.88;100729.25;5057939;28;45229;-70
2022/05/12 03:28:57;;;;;;;;;12.00;9.67;;;;;15.95;72.37;100730.13;5057599;28;45480;-70
2022/05/12 03:31:23;;;;;;;;;11.00;9.33;;;;;15.84;72.71;100714.22;5057694;28;45291;-70
2022/05/12 03:33:49;;;;;;;;;11.00;8.67;;;;;15.86;72.64;100715.13;5057428;28;46210;-70
2022/05/12 03:36:16;;;;;;;;;11.33;11.00;;;;;15.86;72.71;100713.38;5057384;28;45294;-70
2022/05/12 03:38:43;;;;;;;;;10.00;10.00;;;;;15.80;72.81;100707.16;5073087;28;45328;-70
2022/05/12 03:41:08;;;;;;;;;11.00;10.00;;;;;15.92;73.16;100728.38;5057675;28;45491;-70
2022/05/12 03:46:18;;;;;;;;;11.00;9.00;;;;;15.82;73.27;100708.94;5057475;28;45437;-70
2022/05/12 03:48:43;;;;;;;;;11.67;11.00;;;;;15.85;73.50;100714.22;5057279;28;45218;-70
2022/05/12 03:51:09;;;;;;;;;11.00;10.00;;;;;15.85;73.63;100721.25;5057261;28;45472;-70
2022/05/12 03:53:36;;;;;;;;;10.00;9.50;;;;;15.83;73.23;100720.34;5072795;28;46943;-70
2022/05/12 03:56:03;;;;;;;;;10.00;10.00;;;;;15.83;72.94;100712.44;5057109;28;45374;-70
2022/05/12 03:58:29;;;;;;;;;8.67;8.67;;;;;15.62;73.26;100670.94;5057108;28;45520;-70
2022/05/12 04:00:55;;;;;;;;;8.67;8.00;;;;;15.70;72.97;100682.44;5057238;28;45483;-70
2022/05/12 04:03:20;;;;;;;;;8.00;7.33;;;;;15.80;72.67;100699.25;5056915;28;45464;-70
2022/05/12 04:05:47;;;;;;;;;8.00;8.00;;;;;15.84;72.60;100701.06;5056821;28;45544;-73
2022/05/12 04:08:13;;;;;;;;;8.33;8.33;;;;;15.83;73.29;100705.41;5057114;28;45250;-70
2022/05/12 04:10:39;;;;;;;;;8.33;8.00;;;;;15.73;73.55;100700.03;5057021;28;45400;-70
2022/05/12 04:13:04;;;;;;;;;7.67;7.33;;;;;15.79;73.02;100713.28;5056931;28;45496;-71
2022/05/12 04:15:30;;;;;;;;;8.67;8.67;;;;;15.70;73.27;100692.97;5056922;28;45322;-70
2022/05/12 04:18:02;;;;;;;;;10.00;9.00;;;;;15.52;72.07;100670.81;5057138;28;45369;-70
2022/05/12 04:20:31;;;;;;;;;8.00;7.00;;;;;15.67;72.88;100706.94;5060171;28;45480;-79
2022/05/12 04:22:57;;;;;;;;;10.25;9.50;;;;;15.65;73.64;100707.81;5060184;28;46055;-71
2022/05/12 04:25:22;;;;;;;;;8.33;8.00;;;;;15.65;73.69;100713.09;5060339;28;45504;-70
2022/05/12 04:27:48;;;;;;;;;10.00;9.33;;;;;15.61;74.29;100709.53;5060507;28;45443;-70
2022/05/12 04:30:16;;;;;;;;;9.67;9.00;;;;;15.61;74.13;100717.41;5060527;28;45318;-70
2022/05/12 04:32:41;;;;;;;;;10.00;9.75;;;;;15.62;74.58;100715.69;5060060;28;45358;-70
2022/05/12 04:35:12;;;;;;;;;9.00;9.00;;;;;15.65;74.21;100713.09;5060258;28;45813;-70
2022/05/12 04:37:49;;;;;;;;;7.00;6.67;;;;;15.65;73.77;100706.06;5060375;28;45168;-70
2022/05/12 04:40:19;;;;;;;;;8.00;7.67;;;;;15.69;74.06;100705.22;5058950;28;45531;-70
2022/05/12 04:42:47;;;;;;;;;9.00;8.00;;;;;15.71;73.44;100708.75;5059989;28;45394;-70
2022/05/12 04:45:14;;;;;;;;;8.67;8.00;;;;;15.76;72.71;100708.88;5059835;28;45707;-70
2022/05/12 04:47:41;;;;;;;;;9.00;8.00;;;;;15.48;72.83;100670.75;5059835;28;45293;-70
2022/05/12 04:50:11;;;;;;;;;9.25;8.00;;;;;15.61;72.52;100703.38;5060344;28;45714;-70
2022/05/12 04:52:37;;;;;;;;;8.00;8.00;;;;;15.57;73.35;100705.09;5060113;28;46221;-70
2022/05/12 04:55:03;;;;;;;;;9.00;9.00;;;;;15.50;73.29;100711.16;5059772;28;45494;-71
2022/05/12 04:57:35;;;;;;;;;8.00;7.00;;;;;15.34;72.97;100677.59;5060067;28;45322;-70
2022/05/12 05:00:01;;;;;;;;;10.00;9.00;;;;;15.44;74.18;100703.19;5059804;28;45278;-71
2022/05/12 05:02:26;;;;;;;;;8.67;8.00;;;;;15.49;73.70;100698.84;5075090;28;45507;-71
2022/05/12 05:04:52;;;;;;;;;7.00;6.67;;;;;15.51;73.30;100697.13;5059675;28;45380;-70
2022/05/12 05:07:18;;;;;;;;;6.00;6.00;;;;;15.47;72.67;100692.69;5059816;28;45375;-70
2022/05/12 05:09:44;;;;;;;;;7.67;7.67;;;;;15.43;73.52;100686.50;5060155;28;45403;-70
2022/05/12 05:12:09;;;;;;;;;7.33;6.33;;;;;15.44;73.35;100695.28;5059349;28;45466;-70
2022/05/12 05:14:35;;;;;;;;;7.25;7.25;;;;;15.40;72.90;100689.09;5059761;28;45329;-70
2022/05/12 05:17:00;;;;;;;;;8.25;7.50;;;;;15.41;74.55;100692.59;5058272;28;45270;-70
2022/05/12 05:19:26;;;;;;;;;9.00;8.25;;;;;15.40;73.80;100701.34;5059706;28;45527;-70
2022/05/12 05:21:51;;;;;;;;;8.00;7.00;;;;;15.32;74.27;100691.63;5059335;28;45417;-69
2022/05/12 05:24:17;;;;;;;;;9.00;9.00;;;;;15.44;74.02;100701.44;5059405;28;45343;-70
2022/05/12 05:26:43;;;;;;;;;7.50;7.50;;;;;15.42;74.31;100689.09;5059493;28;45457;-70
2022/05/12 05:29:10;;;;;;;;;8.00;8.00;;;;;15.46;74.29;100694.44;5059906;28;45299;-69
2022/05/12 05:31:38;;;;;;;;;8.75;8.75;;;;;15.37;74.12;100677.63;5058951;28;46088;-69
2022/05/12 05:34:04;;;;;;;;;8.00;7.50;;;;;15.59;73.57;100706.00;5059302;28;45325;-70
2022/05/12 05:36:30;;;;;;;;;3.00;1.75;;;;;15.52;73.16;100698.91;5057859;28;45603;-70
2022/05/12 05:38:55;;;;;;;;;8.75;8.75;;;;;15.56;73.34;100707.69;5059762;28;45337;-69
2022/05/12 05:41:21;;;;;;;;;10.00;8.50;;;;;15.58;74.31;100704.22;5059189;28;45391;-70
2022/05/12 05:43:46;;;;;;;;;8.33;7.00;;;;;15.63;73.93;100699.00;5058966;28;45591;-70
2022/05/12 05:46:12;;;;;;;;;7.00;6.33;;;;;15.60;73.85;100705.13;5059327;28;45310;-70
2022/05/12 05:48:37;;;;;;;;;6.75;6.75;;;;;15.51;74.42;100699.75;5059565;28;45314;-70
2022/05/12 05:53:47;;;;;;;;;9.00;8.25;;;;;15.79;73.83;100713.28;5058952;28;45331;-70
2022/05/12 05:56:15;;;;;;;;;10.00;9.00;;;;;15.87;73.92;100724.78;5059010;28;45231;-70
2022/05/12 05:58:44;;;;;;;;;10.00;9.00;;;;;15.92;73.65;100712.56;5059615;28;45568;-70
2022/05/12 06:01:10;;;;;;;;;9.33;8.33;;;;;15.84;73.50;100704.56;5058806;28;46013;-69
2022/05/12 06:03:37;;;;;;;;;11.50;10.50;;;;;16.01;73.16;100714.38;5058678;28;45279;-70
2022/05/12 06:06:03;;;;;;;;;12.00;12.00;;;;;16.13;73.26;100714.50;5058707;28;45449;-69
2022/05/12 06:08:29;;;;;;;;;10.25;10.25;;;;;16.14;72.84;100705.75;5058786;28;45426;-70
2022/05/12 06:10:55;;;;;;;;;8.75;8.75;;;;;16.31;72.31;100721.72;5058648;28;46078;-70
2022/05/12 06:13:20;;;;;;;;;9.50;9.00;;;;;16.32;72.51;100715.59;5058723;28;45448;-70
2022/05/12 06:15:46;;;;;;;;;11.00;10.00;;;;;16.43;72.28;100699.84;5058383;28;45299;-72
2022/05/12 06:18:17;;;;;;;;;10.00;9.33;;;;;16.61;72.00;100718.47;5057716;28;45446;-71
2022/05/12 06:20:44;;;;;;;;;11.00;11.00;;;;;16.68;71.97;100732.59;5058816;28;45421;-70
2022/05/12 06:23:12;;;;;;;;;10.33;8.33;;;;;16.72;71.57;100722.94;5058604;28;45285;-71
2022/05/12 06:25:38;;;;;;;;;11.33;9.00;;;;;16.80;71.42;100730.03;5057025;28;45496;-71
2022/05/12 06:28:04;;;;;;;;;11.00;10.00;;;;;16.89;70.94;100735.44;5057188;28;45527;-71
2022/05/12 06:30:31;;;;;;;;;9.33;9.00;;;;;17.01;70.15;100721.44;5058248;28;46272;-71
2022/05/12 06:32:57;;;;;;;;;9.00;9.00;;;;;17.11;69.79;100714.47;5058164;28;45475;-71
2022/05/12 06:35:26;;;;;;;;;6.67;6.67;;;;;17.22;69.56;100719.78;5074011;28;45365;-71
2022/05/12 06:37:52;;;;;;;;;10.75;10.00;;;;;17.40;69.19;100730.44;5058561;28;45233;-71
2022/05/12 06:40:19;;;;;;;;;8.67;8.00;;;;;17.51;68.49;100719.94;5057865;28;46055;-71
2022/05/12 06:42:45;;;;;;;;;7.33;7.33;;;;;17.65;68.14;100720.88;5057047;28;45358;-71
2022/05/12 06:45:16;;;;;;;;;10.00;9.67;;;;;17.72;68.04;100719.13;5058609;28;45289;-71
2022/05/12 06:47:50;;;;;;;;;6.67;6.67;;;;;17.84;67.71;100715.66;5058750;28;45215;-71
2022/05/12 06:50:19;;;;;;;;;8.67;8.00;;;;;17.96;67.29;100712.19;5057913;28;46134;-71
2022/05/12 06:52:46;;;;;;;;;11.00;9.33;;;;;18.09;66.62;100701.63;5056513;28;45543;-70
2022/05/12 06:55:12;;;;;;;;;10.00;9.33;;;;;18.35;65.89;100700.78;5058617;28;45333;-70
2022/05/12 06:57:38;;;;;;;;;8.67;6.67;;;;;18.57;65.22;100693.72;5056195;28;45368;-77
2022/05/12 07:00:05;;;;;;;;;8.67;8.33;;;;;18.95;64.53;100700.75;5056282;28;46020;-72
2022/05/12 07:02:30;;;;;;;;;9.00;8.67;;;;;19.16;63.67;100678.66;5058400;28;45738;-71
2022/05/12 07:04:57;;;;;;;;;6.00;6.00;;;;;19.49;62.78;100692.66;5070584;28;45305;-75
2022/05/12 07:07:23;;;;;;;;;11.33;8.67;;;;;19.69;61.55;100697.84;5083566;28;45219;-85
2022/05/12 07:09:52;;;;;;;;;8.00;8.00;;;;;19.94;61.01;100687.16;5055800;28;46088;-82
2022/05/12 07:12:19;;;;;;;;;7.67;7.00;;;;;20.03;60.67;100685.34;5055891;28;45318;-78
2022/05/12 07:14:45;;;;;;;;;8.67;7.33;;;;;20.12;60.70;100675.56;5062788;28;45368;-70
2022/05/12 07:17:11;;;;;;;;;8.33;7.33;;;;;20.29;60.31;100686.03;5058384;28;45165;-75
2022/05/12 07:19:36;;;;;;;;;7.00;7.00;;;;;20.22;59.80;100670.16;5057120;28;46075;-91
2022/05/12 07:27:38;;;;;;;;;7.67;7.00;;;;;20.32;59.46;100675.41;5054862;28;45581;-84
2022/05/12 07:30:06;;;;;;;;;6.00;6.00;;;;;20.35;59.10;100664.75;5055535;28;46012;-70
2022/05/12 07:32:31;;;;;;;;;6.00;6.00;;;;;20.35;59.24;100670.94;5055443;28;45461;-74
2022/05/12 07:34:57;;;;;;;;;5.00;5.00;;;;;20.52;59.06;100667.28;5055916;28;45234;-76
2022/05/12 07:37:24;;;;;;;;;7.67;6.67;;;;;20.62;58.87;100638.00;5056100;28;45560;-82
2022/05/12 07:39:49;;;;;;;;;8.00;8.00;;;;;21.25;57.55;100665.66;5052515;28;46607;-72
2022/05/12 07:42:15;;;;;;;;;7.33;6.67;;;;;23.34;51.84;100653.44;5055675;28;45420;-71
2022/05/12 07:44:40;;;;;;;;;5.00;5.00;;;;;24.07;50.30;100669.56;5055878;28;45484;-71
2022/05/12 07:47:09;;;;;;;;;5.00;5.00;;;;;24.16;49.73;100663.16;5055899;28;45319;-79
2022/05/12 07:49:36;;;;;;;;;6.00;5.00;;;;;23.71;50.76;100663.28;5055678;28;45397;-85
2022/05/12 07:52:05;;;;;;;;;8.00;6.00;;;;;23.20;51.27;100657.25;5071453;28;45404;-79
2022/05/12 07:54:32;;;;;;;;;8.00;7.33;;;;;23.18;51.53;100667.06;5055316;28;45539;-78
2022/05/12 07:56:58;;;;;;;;;6.00;6.00;;;;;23.68;51.14;100666.91;5056581;28;45709;-87
2022/05/12 07:59:24;;;;;;;;;7.00;7.00;;;;;23.66;50.01;100662.53;5055548;28;45373;-83
2022/05/12 08:01:50;;;;;;;;;11.67;9.00;;;;;23.61;50.39;100658.13;5056119;28;45496;-71
2022/05/12 08:04:15;;;;;;;;;7.00;5.33;;;;;23.46;48.97;100636.25;5056295;28;45335;-77
2022/05/12 08:06:43;;;;;;;;;6.67;5.67;;;;;23.60;48.83;100653.72;5056710;28;45461;-79
2022/05/12 08:09:09;;;;;;;;;7.00;6.00;;;;;23.72;49.08;100652.59;5055848;28;46867;-74
2022/05/12 08:11:35;;;;;;;;;6.67;6.00;;;;;24.01;47.87;100643.03;5057425;28;45421;-90
2022/05/12 08:14:00;;;;;;;;;6.67;6.67;;;;;24.02;48.10;100634.13;5057745;28;45348;-71
2022/05/12 08:16:26;;;;;;;;;6.00;5.67;;;;;24.12;49.54;100646.34;5057473;28;45585;-74
2022/05/12 08:18:52;;;;;;;;;8.33;7.00;;;;;24.49;47.69;100655.19;5056038;28;45405;-73
2022/05/12 08:21:23;;;;;;;;;7.00;6.33;;;;;24.19;47.72;100642.63;5055862;28;45470;-85
2022/05/12 08:23:49;;;;;;;;;8.67;8.00;;;;;23.85;48.79;100652.31;5055834;28;45440;-75
2022/05/12 08:26:16;;;;;;;;;9.00;9.00;;;;;23.68;49.31;100656.22;5056042;28;45507;-79
2022/05/12 08:28:42;;;;;;;;;13.00;12.00;;;;;23.36;49.44;100651.59;5055502;28;45441;-73
2022/05/12 08:31:09;;;;;;;;;8.33;7.67;;;;;23.48;49.54;100656.66;5055458;28;45586;-70
2022/05/12 08:33:35;;;;;;;;;8.00;8.00;;;;;23.53;49.13;100657.44;5055487;28;45406;-73
2022/05/12 08:36:00;;;;;;;;;8.33;8.00;;;;;23.41;49.01;100661.25;5054297;28;45424;-70
2022/05/12 08:38:26;;;;;;;;;7.33;7.33;;;;;23.43;49.06;100643.41;5055020;28;45516;-74
2022/05/12 08:41:15;;;;;;;;;7.00;7.00;;;;;23.93;47.90;100656.56;5054818;28;45452;-71
2022/05/12 08:43:43;;;;;;;;;7.00;6.67;;;;;24.29;48.04;100655.72;5055341;28;45342;-71
2022/05/12 08:46:12;;;;;;;;;8.00;7.00;;;;;24.11;47.58;100638.34;5055765;28;45219;-73
2022/05/12 08:48:42;;;;;;;;;6.00;6.00;;;;;23.74;48.16;100641.88;5055402;28;45342;-72
2022/05/12 08:51:11;;;;;;;;;5.00;5.00;;;;;23.42;48.79;100646.16;5055218;28;45701;-72
2022/05/12 08:53:58;;;;;;;;;7.00;7.00;;;;;23.41;48.80;100647.91;5055508;28;45470;-72
2022/05/12 08:56:25;;;;;;;;;7.33;7.00;;;;;23.58;48.92;100638.69;5055522;28;45511;-72
2022/05/12 08:58:55;;;;;;;;;7.00;6.67;;;;;23.28;49.33;100635.78;5055604;28;46269;-74
2022/05/12 09:01:47;;;;;;;;;6.00;6.00;;;;;24.18;48.19;100635.50;5055060;28;45341;-82
2022/05/12 09:04:13;;;;;;;;;9.00;7.00;;;;;25.58;44.81;100628.13;5051248;28;45475;-79
2022/05/12 09:06:47;;;;;;;;;10.00;9.00;;;;;25.42;45.38;100625.03;5056192;28;45391;-72
2022/05/12 09:09:25;;;;;;;;;7.00;6.00;;;;;25.18;44.66;100637.31;5058804;28;46048;-78
2022/05/12 09:12:26;;;;;;;;;8.00;7.67;;;;;25.67;44.53;100637.69;5057753;28;45894;-73
2022/05/12 09:15:01;;;;;;;;;7.33;7.33;;;;;27.56;40.66;100637.38;5049799;28;45390;-76
2022/05/12 09:17:44;;;;;;;;;10.33;9.00;;;;;27.96;38.88;100643.00;5059063;28;45483;-79
2022/05/12 09:20:11;;;;;;;;;6.67;6.67;;;;;26.57;41.38;100621.31;5058473;28;45491;-72
2022/05/12 09:22:39;;;;;;;;;5.67;5.00;;;;;25.73;42.78;100642.84;5058758;28;45381;-80
2022/05/12 09:25:06;;;;;;;;;6.33;5.33;;;;;24.98;44.64;100627.19;5058929;28;45492;-79
2022/05/12 09:27:35;;;;;;;;;7.33;7.00;;;;;25.17;44.72;100636.44;5057732;28;45801;-82
2022/05/12 09:30:04;;;;;;;;;8.00;8.00;;;;;26.72;42.34;100638.69;5058503;28;45459;-77
2022/05/12 09:32:33;;;;;;;;;7.00;6.67;;;;;28.34;39.01;100630.63;5058769;28;45227;-73
2022/05/12 09:35:07;;;;;;;;;7.33;7.33;;;;;30.00;37.00;100629.41;5058681;28;45429;-79
2022/05/12 09:37:36;;;;;;;;;12.33;8.67;;;;;30.60;34.42;100623.69;5057468;28;45511;-72
2022/05/12 09:40:20;;;;;;;;;6.00;6.00;;;;;31.09;33.56;100619.28;5058342;28;46051;-73
2022/05/12 09:42:56;;;;;;;;;7.00;7.00;;;;;32.57;32.19;100613.59;5057916;28;45323;-81
2022/05/12 09:45:25;;;;;;;;;6.33;6.33;;;;;33.21;30.82;100630.38;5058781;28;45377;-84
2022/05/12 09:48:17;;;;;;;;;6.33;6.33;;;;;32.84;31.21;100629.06;5059062;28;45179;-75
2022/05/12 09:50:43;;;;;;;;;7.00;6.00;;;;;32.92;31.85;100629.44;5057756;28;45580;-81
2022/05/12 09:53:11;;;;;;;;;7.33;7.00;;;;;32.39;30.91;100622.75;5058280;28;45392;-77
2022/05/12 09:55:41;;;;;;;;;6.67;6.67;;;;;32.67;30.65;100630.13;5057956;28;45412;-72
2022/05/12 09:58:33;;;;;;;;;6.00;5.67;;;;;33.68;30.60;100631.00;5058279;28;45405;-85
2022/05/12 10:01:11;;;;;;;;;6.00;5.67;;;;;34.38;28.73;100629.97;5057825;28;45394;-73
2022/05/12 10:09:16;;;;;;;;;6.00;6.00;;;;;36.07;28.14;100638.72;5057963;28;45343;-70
2022/05/12 10:11:45;;;;;;;;;8.00;7.33;;;;;35.66;27.11;100640.88;5057624;28;45814;-71
2022/05/12 10:14:52;;;;;;;;;5.67;5.67;;;;;35.17;27.23;100642.56;5057859;28;45348;-76
2022/05/12 10:17:43;;;;;;;;;9.00;8.67;;;;;35.24;27.92;100660.16;5055478;28;45381;-71
2022/05/12 10:20:12;;;;;;;;;5.33;5.00;;;;;35.20;27.07;100649.63;5057840;28;45317;-70
2022/05/12 10:22:43;;;;;;;;;6.67;5.67;;;;;34.81;28.23;100644.16;5057156;28;46085;-82
2022/05/12 10:25:26;;;;;;;;;7.00;6.00;;;;;34.68;28.57;100651.44;5055997;28;45717;-72
2022/05/12 10:27:55;;;;;;;;;6.00;5.67;;;;;34.73;28.14;100648.41;5057757;28;45361;-72
2022/05/12 10:30:56;;;;;;;;;8.67;8.33;;;;;34.57;28.11;100644.00;5056721;28;45441;-71
2022/05/12 10:33:38;;;;;;;;;6.67;6.33;;;;;34.43;27.98;100635.97;5034878;28;45592;-70
2022/05/12 10:36:22;;;;;;;;;6.67;6.67;;;;;34.47;27.76;100634.78;5054949;28;45274;-74
2022/05/12 10:39:04;;;;;;;;;7.00;5.67;;;;;34.13;29.21;100650.59;5057486;28;45507;-76
2022/05/12 10:41:36;;;;;;;;;7.00;7.00;;;;;33.56;29.37;100646.16;5056114;28;45287;-71
2022/05/12 10:44:21;;;;;;;;;6.00;6.00;;;;;33.24;30.36;100643.69;5055732;28;46536;-71
2022/05/12 10:47:16;;;;;;;;;6.67;6.67;;;;;32.98;29.89;100644.44;5057041;28;45432;-71
2022/05/12 10:49:55;;;;;;;;;7.67;7.00;;;;;32.51;31.09;100640.97;5056136;28;45335;-71
2022/05/12 10:52:46;;;;;;;;;5.67;5.00;;;;;32.56;30.75;100648.81;5056957;28;45608;-71
2022/05/12 10:55:35;;;;;;;;;6.00;6.00;;;;;32.73;30.96;100635.16;5057029;28;46210;-77
2022/05/12 10:58:22;;;;;;;;;6.33;6.33;;;;;32.35;30.78;100627.50;5056022;28;45374;-75
2022/05/12 11:01:02;;;;;;;;;7.00;7.00;;;;;32.21;31.99;100622.03;5056169;28;45439;-81
2022/05/12 11:03:37;;;;;;;;;7.67;6.67;;;;;32.01;32.03;100631.31;5056983;28;45531;-71
2022/05/12 11:06:09;;;;;;;;;6.00;5.33;;;;;31.41;32.76;100621.16;5056691;28;46043;-74
2022/05/12 11:08:42;;;;;;;;;7.00;6.67;;;;;31.03;32.90;100625.00;5056121;28;45468;-71
2022/05/12 11:11:15;;;;;;;;;6.33;6.33;;;;;30.50;34.18;100617.91;5056663;28;45492;-78
2022/05/12 11:13:49;;;;;;;;;7.00;6.33;;;;;30.42;34.50;100626.41;5055111;28;45437;-73
2022/05/12 11:16:22;;;;;;;;;7.33;7.00;;;;;30.28;34.72;100629.78;5054785;28;46598;-70
2022/05/12 11:19:06;;;;;;;;;8.00;8.00;;;;;29.78;34.96;100627.78;5054988;28;45569;-71
2022/05/12 11:21:38;;;;;;;;;8.00;7.00;;;;;29.35;36.30;100625.31;5056384;28;45607;-72
2022/05/12 11:24:13;;;;;;;;;8.00;8.00;;;;;29.09;36.71;100614.88;5056455;28;45454;-72
2022/05/12 11:27:16;;;;;;;;;7.00;7.00;;;;;29.39;36.12;100603.63;5055975;28;45420;-71
2022/05/12 11:30:00;;;;;;;;;8.00;8.00;;;;;29.17;36.52;100610.03;5055353;28;45508;-78
2022/05/12 11:32:42;;;;;;;;;8.67;8.67;;;;;28.82;36.98;100609.78;5055242;28;45501;-73
2022/05/12 11:35:30;;;;;;;;;6.67;6.67;;;;;29.08;37.27;100605.91;5056350;28;45323;-72
2022/05/12 11:38:02;;;;;;;;;9.00;7.67;;;;;29.61;36.15;100611.56;5055720;28;46081;-75
2022/05/12 11:40:44;;;;;;;;;8.00;8.00;;;;;29.30;37.01;100597.72;5056051;28;45480;-79
2022/05/12 11:46:23;;;;;;;;;9.67;9.00;;;;;29.46;37.35;100589.78;5056078;28;45476;-83
2022/05/12 11:49:13;;;;;;;;;8.00;7.00;;;;;29.18;36.96;100574.09;5055675;28;46053;-73